Time;durP1;ratioP1;P1;durP2;ratioP2;P2;SDS_P1;SDS_P2;PMS_P1;PMS_P2;Temp;Humidity;BMP_temperature;BMP_pressure;BME280_temperature;BME280_humidity;BME280_pressure;Samples;Min_cycle;Max_cycle;Signal;HPM_P1;HPM_P2
2023/01/10 00:01:09;;;;;;;7.63;3.03;;;2.80;89.90;;;;;;5023874;28;20053;-68
2023/01/10 00:03:35;;;;;;;9.48;3.88;;;2.70;88.90;;;;;;4999335;28;20023;-67
2023/01/10 00:06:00;;;;;;;8.68;2.78;;;2.70;88.30;;;;;;5013826;28;20022;-68
2023/01/10 00:08:26;;;;;;;6.03;2.15;;;2.70;87.40;;;;;;5013823;28;20075;-69
2023/01/10 00:10:51;;;;;;;5.85;2.20;;;2.70;87.20;;;;;;4996991;28;20141;-68
2023/01/10 00:13:23;;;;;;;20.98;7.45;;;2.60;86.20;;;;;;5019646;28;20030;-68
2023/01/10 00:15:51;;;;;;;10.95;3.10;;;2.60;86.30;;;;;;5015990;28;20026;-68
2023/01/10 00:18:17;;;;;;;7.22;2.85;;;2.60;86.10;;;;;;5012230;28;20030;-67
2023/01/10 00:20:45;;;;;;;5.43;2.13;;;2.60;85.00;;;;;;5005635;28;20026;-67
2023/01/10 00:23:11;;;;;;;11.30;3.05;;;2.60;84.40;;;;;;5009304;28;20034;-68
2023/01/10 00:25:37;;;;;;;4.47;2.30;;;2.50;84.10;;;;;;5002289;28;20308;-68
2023/01/10 00:28:09;;;;;;;10.25;2.88;;;2.50;83.70;;;;;;5013110;28;20037;-68
2023/01/10 00:30:37;;;;;;;11.25;2.70;;;2.40;83.20;;;;;;5014671;28;20108;-68
2023/01/10 00:33:03;;;;;;;5.57;2.30;;;2.40;81.20;;;;;;5015662;28;20130;-68
2023/01/10 00:35:29;;;;;;;33.05;7.35;;;2.40;81.30;;;;;;5016516;28;20025;-68
2023/01/10 00:38:00;;;;;;;14.32;3.40;;;2.40;80.70;;;;;;4997987;28;20038;-68
2023/01/10 00:40:26;;;;;;;10.63;2.55;;;2.30;80.50;;;;;;5013748;28;20492;-68
2023/01/10 00:45:35;;;;;;;4.47;1.90;;;2.30;79.70;;;;;;5007266;28;20153;-68
2023/01/10 00:48:01;;;;;;;3.63;1.70;;;2.30;79.80;;;;;;5013849;28;20442;-68
2023/01/10 00:50:27;;;;;;;9.93;3.67;;;2.30;78.60;;;;;;5014437;28;20421;-69
2023/01/10 00:52:52;;;;;;;5.40;2.40;;;2.30;78.60;;;;;;5011601;28;20414;-68
2023/01/10 00:55:18;;;;;;;4.57;2.40;;;2.30;77.80;;;;;;5012930;28;20325;-68
2023/01/10 00:57:43;;;;;;;5.63;2.03;;;2.30;78.10;;;;;;5017292;28;20018;-68
2023/01/10 01:00:11;;;;;;;4.82;2.40;;;2.30;78.90;;;;;;5018418;28;20366;-68
2023/01/10 01:02:36;;;;;;;6.35;2.00;;;2.30;78.70;;;;;;5029952;28;20030;-68
2023/01/10 01:05:03;;;;;;;4.60;2.05;;;2.30;78.20;;;;;;5026796;28;20025;-69
2023/01/10 01:07:28;;;;;;;5.32;2.60;;;2.40;77.80;;;;;;5013400;28;20036;-69
2023/01/10 01:12:38;;;;;;;5.88;2.30;;;2.30;77.70;;;;;;5018059;28;20069;-69
2023/01/10 01:15:04;;;;;;;4.63;2.30;;;2.30;76.80;;;;;;5017942;28;20446;-69
2023/01/10 01:17:30;;;;;;;6.68;2.20;;;2.30;77.20;;;;;;5015003;28;20427;-69
2023/01/10 01:19:55;;;;;;;4.63;2.53;;;2.30;76.30;;;;;;5016208;28;20023;-69
2023/01/10 01:22:21;;;;;;;4.60;2.10;;;2.20;75.50;;;;;;5013176;28;20026;-69
2023/01/10 01:24:49;;;;;;;3.80;2.00;;;2.20;75.60;;;;;;5017618;28;20061;-69
2023/01/10 01:27:15;;;;;;;4.10;2.10;;;2.30;75.00;;;;;;5018127;28;20053;-69
2023/01/10 01:29:40;;;;;;;4.10;2.17;;;2.30;74.40;;;;;;5017486;28;20315;-68
2023/01/10 01:32:06;;;;;;;3.38;1.88;;;2.30;75.00;;;;;;5019087;28;20030;-69
2023/01/10 01:34:32;;;;;;;4.25;1.90;;;2.30;75.10;;;;;;5017137;28;20030;-69
2023/01/10 01:36:59;;;;;;;6.90;2.40;;;2.30;75.40;;;;;;5016054;28;20440;-68
2023/01/10 01:39:25;;;;;;;3.45;1.90;;;2.30;74.30;;;;;;5011252;28;20022;-69
2023/01/10 01:41:57;;;;;;;4.07;2.10;;;2.30;74.40;;;;;;5016312;28;20418;-68
2023/01/10 01:44:28;;;;;;;3.40;2.03;;;2.30;74.50;;;;;;5017703;28;20065;-69
2023/01/10 01:47:24;;;;;;;3.20;1.90;;;2.30;74.00;;;;;;5017753;28;20327;-69
2023/01/10 01:49:50;;;;;;;4.75;1.90;;;2.20;73.30;;;;;;4997902;28;20561;-69
2023/01/10 01:52:33;;;;;;;2.80;1.60;;;2.20;73.70;;;;;;5015393;28;20030;-70
2023/01/10 01:55:00;;;;;;;5.25;2.40;;;2.30;73.70;;;;;;5016690;28;20103;-69
2023/01/10 01:57:27;;;;;;;3.85;2.17;;;2.20;74.40;;;;;;5016599;28;20030;-70
2023/01/10 01:59:54;;;;;;;4.80;1.80;;;2.20;74.20;;;;;;5014099;28;20079;-69
2023/01/10 02:02:46;;;;;;;4.00;1.80;;;2.20;74.10;;;;;;5011322;28;20026;-70
2023/01/10 02:05:14;;;;;;;6.00;1.80;;;2.20;74.10;;;;;;5014044;28;20430;-69
2023/01/10 02:07:44;;;;;;;4.30;1.88;;;2.30;73.70;;;;;;5011071;28;20076;-69
2023/01/10 02:10:35;;;;;;;3.85;1.65;;;2.20;74.00;;;;;;5014971;28;20042;-69
2023/01/10 02:13:04;;;;;;;3.80;1.58;;;2.30;73.50;;;;;;5006539;28;20065;-69
2023/01/10 02:15:30;;;;;;;3.55;1.80;;;2.30;73.80;;;;;;4997321;28;20156;-69
2023/01/10 02:17:56;;;;;;;3.10;1.83;;;2.30;73.90;;;;;;5013896;28;20068;-69
2023/01/10 02:20:23;;;;;;;4.78;1.80;;;2.30;72.90;;;;;;5012074;28;20029;-69
2023/01/10 02:22:56;;;;;;;3.72;2.00;;;2.20;73.70;;;;;;4998347;28;20323;-69
2023/01/10 02:25:50;;;;;;;6.63;2.23;;;2.20;73.30;;;;;;5016061;28;20323;-69
2023/01/10 02:28:52;;;;;;;6.85;2.40;;;2.30;73.00;;;;;;5017600;28;20427;-68
2023/01/10 02:31:39;;;;;;;6.00;2.40;;;2.30;72.20;;;;;;5017309;28;20034;-69
2023/01/10 02:34:07;;;;;;;5.15;2.13;;;2.30;72.30;;;;;;4997095;28;20025;-69
2023/01/10 02:37:07;;;;;;;7.05;2.10;;;2.20;72.80;;;;;;5011887;28;20030;-68
2023/01/10 02:39:46;;;;;;;5.68;2.13;;;2.20;72.10;;;;;;4990064;28;20381;-69
2023/01/10 02:42:28;;;;;;;6.75;2.92;;;2.20;72.20;;;;;;5015183;28;20037;-68
2023/01/10 02:45:07;;;;;;;4.53;2.00;;;2.20;71.90;;;;;;4991125;28;20331;-68
2023/01/10 02:47:37;;;;;;;3.25;1.77;;;2.30;71.90;;;;;;5013944;28;20026;-68
2023/01/10 02:50:26;;;;;;;6.45;1.75;;;2.20;72.20;;;;;;4997273;28;20084;-68
2023/01/10 02:52:53;;;;;;;6.00;1.70;;;2.20;72.90;;;;;;5002640;28;20381;-68
2023/01/10 02:55:24;;;;;;;2.92;1.50;;;2.20;72.80;;;;;;5014824;28;20026;-68
2023/01/10 02:58:08;;;;;;;3.15;1.40;;;2.20;73.10;;;;;;5014650;28;20105;-68
2023/01/10 03:01:07;;;;;;;4.45;1.60;;;2.20;73.50;;;;;;5014027;28;20034;-68
2023/01/10 03:04:02;;;;;;;3.60;1.50;;;2.20;73.40;;;;;;5014662;28;20026;-68
2023/01/10 03:06:40;;;;;;;4.95;1.83;;;2.20;73.80;;;;;;4997112;28;20040;-68
2023/01/10 03:09:06;;;;;;;3.63;1.60;;;2.20;73.90;;;;;;5015860;28;20498;-69
2023/01/10 03:11:42;;;;;;;3.72;1.50;;;2.20;73.60;;;;;;4998606;28;20030;-68
2023/01/10 03:14:22;;;;;;;4.15;1.50;;;2.10;73.50;;;;;;5016367;28;20108;-69
2023/01/10 03:17:05;;;;;;;4.72;1.65;;;2.10;73.10;;;;;;5015753;28;20360;-68
2023/01/10 03:19:37;;;;;;;3.67;1.42;;;2.10;72.80;;;;;;5016187;28;20022;-68
2023/01/10 03:22:07;;;;;;;3.10;1.50;;;2.10;72.90;;;;;;4987404;28;20099;-69
2023/01/10 03:24:40;;;;;;;3.28;1.40;;;2.00;72.20;;;;;;4997155;28;20109;-68
2023/01/10 03:27:21;;;;;;;3.92;1.70;;;2.00;72.60;;;;;;5011169;28;20036;-68
2023/01/10 03:29:58;;;;;;;2.22;1.30;;;2.00;72.10;;;;;;5014108;28;20038;-68
2023/01/10 03:32:27;;;;;;;2.67;1.55;;;2.00;72.20;;;;;;5011065;28;20037;-69
2023/01/10 03:34:55;;;;;;;4.00;1.70;;;2.00;71.70;;;;;;5013399;28;20327;-69
2023/01/10 03:37:26;;;;;;;4.72;1.52;;;2.00;72.20;;;;;;5014199;28;20114;-69
2023/01/10 03:40:04;;;;;;;2.95;1.50;;;2.00;72.40;;;;;;5010041;28;20026;-68
2023/01/10 03:45:42;;;;;;;4.93;2.00;;;2.00;72.10;;;;;;5000541;28;20026;-69
2023/01/10 03:48:10;;;;;;;5.90;2.95;;;2.00;71.70;;;;;;5013962;28;20355;-69
2023/01/10 03:50:37;;;;;;;3.80;1.80;;;1.90;71.50;;;;;;4989474;28;20065;-69
2023/01/10 03:53:04;;;;;;;3.35;1.90;;;1.90;70.80;;;;;;4998887;28;20293;-69
2023/01/10 03:55:30;;;;;;;3.60;1.77;;;2.00;70.70;;;;;;5011586;28;20067;-69
2023/01/10 03:57:56;;;;;;;2.90;1.52;;;2.00;70.70;;;;;;5014465;28;20026;-69
2023/01/10 04:00:24;;;;;;;3.33;1.80;;;1.90;70.50;;;;;;5010734;28;20030;-69
2023/01/10 04:02:50;;;;;;;4.80;1.67;;;1.90;70.30;;;;;;5011039;28;20068;-69
2023/01/10 04:05:16;;;;;;;4.55;1.65;;;2.00;70.00;;;;;;5014109;28;20025;-69
2023/01/10 04:07:41;;;;;;;4.43;1.92;;;2.00;70.60;;;;;;4995713;28;20487;-69
2023/01/10 04:10:08;;;;;;;4.53;2.00;;;2.00;70.90;;;;;;5013739;28;20062;-69
2023/01/10 04:12:33;;;;;;;4.63;1.77;;;2.00;70.90;;;;;;4998635;28;20323;-68
2023/01/10 04:15:00;;;;;;;4.13;1.50;;;1.90;71.00;;;;;;5022526;28;20030;-68
2023/01/10 04:17:26;;;;;;;4.53;1.50;;;2.00;71.20;;;;;;4995616;28;20080;-68
2023/01/10 04:19:51;;;;;;;5.72;1.80;;;2.00;71.30;;;;;;5010804;28;20415;-68
2023/01/10 04:22:17;;;;;;;3.92;1.60;;;2.00;72.40;;;;;;4990508;28;20063;-68
2023/01/10 04:24:43;;;;;;;4.30;1.58;;;2.00;72.00;;;;;;5015752;28;20096;-69
2023/01/10 04:27:08;;;;;;;4.57;1.80;;;2.00;72.60;;;;;;5011771;28;20044;-68
2023/01/10 04:29:34;;;;;;;4.93;1.58;;;2.00;72.70;;;;;;5012731;28;20072;-68
2023/01/10 04:32:00;;;;;;;5.80;1.70;;;2.00;73.30;;;;;;5016645;28;20034;-69
2023/01/10 04:34:25;;;;;;;5.82;2.00;;;2.00;73.90;;;;;;5019587;28;20034;-68
2023/01/10 04:36:51;;;;;;;8.25;2.28;;;2.00;75.10;;;;;;5018414;28;20036;-68
2023/01/10 04:39:16;;;;;;;9.75;1.80;;;2.00;75.00;;;;;;5019809;28;20030;-68
2023/01/10 04:41:42;;;;;;;5.85;2.65;;;2.00;74.80;;;;;;5017122;28;20018;-68
2023/01/10 04:44:08;;;;;;;9.25;3.95;;;2.00;75.60;;;;;;5000195;28;20036;-68
2023/01/10 04:46:33;;;;;;;9.43;3.00;;;2.00;76.40;;;;;;5014624;28;20022;-69
2023/01/10 04:49:05;;;;;;;9.15;2.80;;;2.00;76.10;;;;;;5017295;28;20037;-70
2023/01/10 04:51:30;;;;;;;13.82;2.70;;;2.00;76.50;;;;;;5023707;28;20101;-69
2023/01/10 04:53:56;;;;;;;5.35;2.67;;;2.00;75.70;;;;;;5030310;28;20474;-69
2023/01/10 04:56:23;;;;;;;6.90;2.80;;;2.00;76.20;;;;;;5016366;28;20080;-68
2023/01/10 04:58:49;;;;;;;9.48;3.85;;;2.00;75.60;;;;;;5004440;28;20030;-69
2023/01/10 05:01:20;;;;;;;11.52;4.05;;;2.00;75.30;;;;;;5018630;28;20026;-69
2023/01/10 05:03:47;;;;;;;10.07;3.60;;;2.00;75.50;;;;;;5018784;28;20030;-69
2023/01/10 05:06:13;;;;;;;10.48;3.63;;;2.00;75.40;;;;;;5015395;28;20334;-69
2023/01/10 05:08:39;;;;;;;10.00;3.80;;;2.00;75.60;;;;;;5017230;28;20033;-69
2023/01/10 05:11:05;;;;;;;12.30;3.72;;;2.00;76.60;;;;;;5014103;28;20099;-69
2023/01/10 05:13:30;;;;;;;14.52;3.85;;;1.90;77.10;;;;;;5016579;28;20034;-69
2023/01/10 05:15:57;;;;;;;10.52;4.35;;;1.90;76.70;;;;;;5017619;28;20026;-69
2023/01/10 05:18:27;;;;;;;15.98;4.00;;;1.90;76.30;;;;;;4999033;28;20041;-69
2023/01/10 05:21:02;;;;;;;13.60;4.25;;;1.90;76.60;;;;;;5002989;28;20033;-69
2023/01/10 05:23:28;;;;;;;14.40;4.28;;;1.90;76.30;;;;;;5019864;28;20124;-68
2023/01/10 05:25:57;;;;;;;9.95;4.18;;;1.90;76.00;;;;;;5015704;28;20385;-69
2023/01/10 05:28:23;;;;;;;13.68;4.60;;;1.90;75.40;;;;;;5016835;28;20025;-68
2023/01/10 05:30:48;;;;;;;14.90;5.10;;;1.90;75.70;;;;;;5012041;28;20022;-68
2023/01/10 05:33:14;;;;;;;21.25;4.75;;;1.90;77.00;;;;;;5014321;28;20045;-67
2023/01/10 05:35:40;;;;;;;14.18;4.38;;;2.00;78.50;;;;;;5016246;28;20025;-68
2023/01/10 05:38:05;;;;;;;17.20;5.03;;;2.00;78.70;;;;;;5015075;28;20034;-68
2023/01/10 05:40:31;;;;;;;14.07;4.20;;;2.00;78.70;;;;;;5017924;28;20109;-68
2023/01/10 05:42:59;;;;;;;18.25;4.43;;;2.00;78.10;;;;;;5027915;28;20034;-68
2023/01/10 05:45:25;;;;;;;22.48;5.75;;;2.00;77.70;;;;;;5010907;28;20022;-68
2023/01/10 05:47:50;;;;;;;17.70;4.72;;;2.00;77.30;;;;;;4997527;28;20026;-68
2023/01/10 05:50:16;;;;;;;15.75;4.07;;;2.00;76.50;;;;;;5017382;28;20461;-68
2023/01/10 05:52:41;;;;;;;14.27;5.03;;;2.00;76.60;;;;;;5016147;28;20418;-68
2023/01/10 05:55:07;;;;;;;14.68;5.78;;;2.00;76.50;;;;;;5018915;28;20068;-68
2023/01/10 05:57:32;;;;;;;21.52;6.70;;;2.00;76.00;;;;;;5021907;28;20415;-67
2023/01/10 05:59:58;;;;;;;17.48;4.82;;;1.90;75.50;;;;;;5015838;28;20026;-67
2023/01/10 06:02:25;;;;;;;17.20;5.40;;;2.00;74.60;;;;;;5015583;28;20025;-68
2023/01/10 06:04:51;;;;;;;17.35;4.82;;;2.00;75.00;;;;;;5015887;28;20088;-68
2023/01/10 06:07:16;;;;;;;17.60;5.53;;;2.00;76.80;;;;;;5012732;28;20042;-69
2023/01/10 06:09:42;;;;;;;18.17;5.38;;;2.00;77.10;;;;;;4979759;28;1055603;-68
2023/01/10 06:12:08;;;;;;;31.27;12.07;;;2.00;77.70;;;;;;5015885;28;20065;-68
2023/01/10 06:14:33;;;;;;;16.02;5.95;;;2.00;77.60;;;;;;5016639;28;20033;-68
2023/01/10 06:16:59;;;;;;;18.58;4.88;;;2.00;77.20;;;;;;5013966;28;20029;-68
2023/01/10 06:19:24;;;;;;;11.75;4.65;;;2.00;77.80;;;;;;5014367;28;20030;-68
2023/01/10 06:21:50;;;;;;;18.48;4.93;;;1.90;77.20;;;;;;5015548;28;20041;-68
2023/01/10 06:24:15;;;;;;;19.05;5.97;;;1.90;77.20;;;;;;5015573;28;20430;-69
2023/01/10 06:26:41;;;;;;;20.23;6.30;;;1.90;77.30;;;;;;5017727;28;20418;-67
2023/01/10 06:29:06;;;;;;;23.63;7.18;;;1.90;77.60;;;;;;5010082;28;20410;-70
2023/01/10 06:31:32;;;;;;;19.15;7.65;;;1.90;77.60;;;;;;5014156;28;20300;-68
2023/01/10 06:33:58;;;;;;;25.15;11.60;;;1.90;77.40;;;;;;5017782;28;20057;-68
2023/01/10 06:36:23;;;;;;;14.48;6.88;;;1.90;77.50;;;;;;5016511;28;20125;-68
2023/01/10 06:38:49;;;;;;;22.42;6.68;;;1.90;77.30;;;;;;5016652;28;20086;-68
2023/01/10 06:41:14;;;;;;;21.55;8.88;;;1.90;78.70;;;;;;5016636;28;20393;-68
2023/01/10 06:43:45;;;;;;;27.63;11.48;;;1.90;80.10;;;;;;5017425;28;20026;-68
2023/01/10 06:46:16;;;;;;;25.73;8.27;;;1.90;79.80;;;;;;5017514;28;20022;-68
2023/01/10 06:48:44;;;;;;;28.13;10.20;;;1.90;78.40;;;;;;5000006;28;20034;-67
2023/01/10 06:51:11;;;;;;;21.50;6.30;;;1.90;78.30;;;;;;5015318;28;20038;-68
2023/01/10 06:53:37;;;;;;;20.65;8.63;;;1.90;77.60;;;;;;5016616;28;20303;-68
2023/01/10 06:56:04;;;;;;;24.17;9.23;;;1.90;78.70;;;;;;5017310;28;20029;-68
2023/01/10 06:58:33;;;;;;;20.88;7.53;;;1.90;77.80;;;;;;5017300;28;20410;-68
2023/01/10 07:00:59;;;;;;;23.35;6.97;;;2.00;78.40;;;;;;5016168;28;20029;-68
2023/01/10 07:03:24;;;;;;;20.90;7.75;;;2.00;79.60;;;;;;5017283;28;20318;-68
2023/01/10 07:05:50;;;;;;;17.75;5.13;;;2.00;79.00;;;;;;5017119;28;20097;-68
2023/01/10 07:08:16;;;;;;;14.88;5.40;;;2.00;80.00;;;;;;5015818;28;20133;-68
2023/01/10 07:10:42;;;;;;;20.75;4.68;;;2.00;80.80;;;;;;5015987;28;20096;-68
2023/01/10 07:13:08;;;;;;;16.90;3.92;;;2.00;81.40;;;;;;5016810;28;20117;-68
2023/01/10 07:15:34;;;;;;;17.20;4.72;;;2.00;82.40;;;;;;5016913;28;20102;-69
2023/01/10 07:18:00;;;;;;;11.43;4.32;;;2.00;83.70;;;;;;5016854;28;20033;-68
2023/01/10 07:20:26;;;;;;;22.15;7.25;;;2.00;83.90;;;;;;5012242;28;20021;-68
2023/01/10 07:22:59;;;;;;;25.65;8.35;;;2.00;84.70;;;;;;5010969;28;20034;-68
2023/01/10 07:25:26;;;;;;;21.23;8.45;;;2.00;84.60;;;;;;5015867;28;20026;-68
2023/01/10 07:27:55;;;;;;;19.70;5.80;;;2.00;83.80;;;;;;5015031;28;20038;-68
2023/01/10 07:30:22;;;;;;;20.38;4.78;;;2.10;87.00;;;;;;5016603;28;20022;-68
2023/01/10 07:32:55;;;;;;;16.33;4.57;;;2.10;90.20;;;;;;5016229;28;20430;-68
2023/01/10 07:35:21;;;;;;;13.43;4.85;;;2.10;90.20;;;;;;5012951;28;20038;-68
2023/01/10 07:37:47;;;;;;;15.80;4.00;;;2.10;90.90;;;;;;5015356;28;20381;-67
2023/01/10 07:40:13;;;;;;;15.73;4.30;;;2.10;91.30;;;;;;5015314;28;20100;-67
2023/01/10 07:42:38;;;;;;;19.58;4.30;;;2.10;92.30;;;;;;5015497;28;20319;-69
2023/01/10 07:45:06;;;;;;;12.73;4.30;;;2.10;92.10;;;;;;5015418;28;20327;-69
2023/01/10 07:47:31;;;;;;;14.43;4.40;;;2.00;92.00;;;;;;5013765;28;20056;-69
2023/01/10 07:49:57;;;;;;;16.75;5.03;;;2.00;91.90;;;;;;5016393;28;20407;-69
2023/01/10 07:52:22;;;;;;;13.80;3.60;;;2.10;91.80;;;;;;5014032;28;20034;-69
2023/01/10 07:54:48;;;;;;;24.08;6.25;;;2.10;93.20;;;;;;5016239;28;20037;-69
2023/01/10 07:57:14;;;;;;;19.05;5.75;;;2.10;92.90;;;;;;5013833;28;20100;-69
2023/01/10 07:59:40;;;;;;;13.05;4.05;;;2.10;91.80;;;;;;5015920;28;20334;-68
2023/01/10 08:02:05;;;;;;;14.20;4.00;;;2.10;92.10;;;;;;5015176;28;20025;-69
2023/01/10 08:04:31;;;;;;;13.20;4.15;;;2.10;91.50;;;;;;5016086;28;20092;-68
2023/01/10 08:06:56;;;;;;;15.10;4.30;;;2.10;91.90;;;;;;5014003;28;20036;-68
2023/01/10 08:09:22;;;;;;;14.65;4.55;;;2.20;94.50;;;;;;4981087;28;20032;-68
2023/01/10 08:11:47;;;;;;;16.42;5.65;;;2.20;94.10;;;;;;5007088;28;20030;-68
2023/01/10 08:14:13;;;;;;;21.23;7.43;;;2.20;94.20;;;;;;5016110;28;20433;-68
2023/01/10 08:16:38;;;;;;;17.02;4.60;;;2.20;94.20;;;;;;5014859;28;20327;-68
2023/01/10 08:19:04;;;;;;;14.88;4.88;;;2.30;96.00;;;;;;5015149;28;20030;-68
2023/01/10 08:21:30;;;;;;;13.82;4.43;;;2.30;96.30;;;;;;5013630;28;20211;-68
2023/01/10 08:23:55;;;;;;;13.57;4.53;;;2.40;95.70;;;;;;5014124;28;20026;-68
2023/01/10 08:26:21;;;;;;;12.65;4.10;;;2.40;96.30;;;;;;4997509;28;20029;-68
2023/01/10 08:28:46;;;;;;;12.75;4.72;;;2.50;96.30;;;;;;4996750;28;20029;-68
2023/01/10 08:31:12;;;;;;;11.73;4.30;;;2.60;96.40;;;;;;5015123;28;20037;-68
2023/01/10 08:33:39;;;;;;;10.50;3.00;;;2.60;97.60;;;;;;4997865;28;20056;-68
2023/01/10 08:36:05;;;;;;;14.75;3.53;;;2.60;97.20;;;;;;4997608;28;20037;-68
2023/01/10 08:38:30;;;;;;;16.95;3.42;;;2.60;98.00;;;;;;5013853;28;20410;-68
2023/01/10 08:40:57;;;;;;;15.95;4.00;;;2.90;98.00;;;;;;5014739;28;20030;-68
2023/01/10 08:43:23;;;;;;;10.63;3.10;;;3.00;98.00;;;;;;4997943;28;20419;-68
2023/01/10 08:45:49;;;;;;;10.73;3.33;;;3.00;98.00;;;;;;4998202;28;20054;-68
2023/01/10 08:48:14;;;;;;;14.80;4.00;;;3.10;98.00;;;;;;5013552;28;20072;-67
2023/01/10 08:50:40;;;;;;;10.80;3.00;;;3.20;98.00;;;;;;5013679;28;20075;-68
2023/01/10 08:53:08;;;;;;;11.77;3.03;;;3.20;98.00;;;;;;5014386;28;20033;-68
2023/01/10 08:55:34;;;;;;;11.70;3.17;;;3.10;98.00;;;;;;5014868;28;20018;-68
2023/01/10 08:58:01;;;;;;;12.73;4.35;;;3.20;98.00;;;;;;5015547;28;20092;-68
2023/01/10 09:00:27;;;;;;;12.10;3.58;;;3.20;98.00;;;;;;5015736;28;20018;-67
2023/01/10 09:02:52;;;;;;;11.80;2.95;;;3.20;98.00;;;;;;4996599;28;20323;-68
2023/01/10 09:05:18;;;;;;;7.35;2.63;;;3.30;98.00;;;;;;5011434;28;20022;-67
2023/01/10 09:07:45;;;;;;;9.38;3.20;;;3.30;98.00;;;;;;5010813;28;20030;-68
2023/01/10 09:10:11;;;;;;;9.18;2.90;;;3.30;98.00;;;;;;5015448;28;20050;-68
2023/01/10 09:12:54;;;;;;;10.10;3.13;;;3.30;98.00;;;;;;5012833;28;20029;-69
2023/01/10 09:15:29;;;;;;;15.07;3.00;;;3.30;98.00;;;;;;5013525;28;20112;-68
2023/01/10 09:17:56;;;;;;;11.95;4.03;;;3.20;98.00;;;;;;4998623;28;20114;-68
2023/01/10 09:20:23;;;;;;;11.85;3.53;;;3.30;98.00;;;;;;5017001;28;20033;-68
2023/01/10 09:22:49;;;;;;;10.80;2.42;;;3.20;98.00;;;;;;5016116;28;20060;-68
2023/01/10 09:25:15;;;;;;;12.48;3.78;;;3.30;98.00;;;;;;5018086;28;20061;-68
2023/01/10 09:27:41;;;;;;;9.32;2.88;;;3.30;98.00;;;;;;5019202;28;20033;-68
2023/01/10 09:30:07;;;;;;;10.00;2.95;;;3.40;98.00;;;;;;5015474;28;20423;-68
2023/01/10 09:32:32;;;;;;;10.77;3.05;;;3.40;98.00;;;;;;5017546;28;20022;-68
2023/01/10 09:34:58;;;;;;;12.32;3.90;;;3.50;98.00;;;;;;5006549;28;20034;-68
2023/01/10 09:37:23;;;;;;;9.55;2.63;;;3.60;98.00;;;;;;5014759;28;20109;-68
2023/01/10 09:39:51;;;;;;;9.80;2.40;;;3.70;98.00;;;;;;5016511;28;20036;-68
2023/01/10 09:42:54;;;;;;;11.60;3.45;;;3.80;98.00;;;;;;5018394;28;20018;-68
2023/01/10 09:45:43;;;;;;;13.68;3.60;;;3.80;98.00;;;;;;5018337;28;20108;-67
2023/01/10 09:48:21;;;;;;;13.98;3.13;;;3.90;98.00;;;;;;5016243;28;20045;-68
2023/01/10 09:51:17;;;;;;;11.13;3.42;;;4.10;98.00;;;;;;5016016;28;20030;-68
2023/01/10 09:53:44;;;;;;;11.35;2.50;;;4.20;98.00;;;;;;5016417;28;20054;-68
2023/01/10 09:56:14;;;;;;;9.70;2.47;;;4.30;98.00;;;;;;5018502;28;20022;-68
2023/01/10 09:58:42;;;;;;;12.57;2.55;;;4.20;98.00;;;;;;5016340;28;20026;-67
2023/01/10 10:01:21;;;;;;;9.32;2.22;;;4.10;98.00;;;;;;5016684;28;20084;-68
2023/01/10 10:04:13;;;;;;;12.82;2.40;;;4.10;98.00;;;;;;5016153;28;20036;-68
2023/01/10 10:06:39;;;;;;;6.63;2.42;;;4.20;98.00;;;;;;5016184;28;20036;-68
2023/01/10 10:09:05;;;;;;;8.00;2.10;;;4.30;98.00;;;;;;5018116;28;20026;-68
2023/01/10 10:11:45;;;;;;;8.00;2.60;;;4.30;97.90;;;;;;5017381;28;20386;-68
2023/01/10 10:14:55;;;;;;;14.27;2.47;;;4.40;97.50;;;;;;5016919;28;20103;-67
2023/01/10 10:17:29;;;;;;;10.05;3.10;;;4.40;97.10;;;;;;5015796;28;20492;-67
2023/01/10 10:20:11;;;;;;;10.38;3.88;;;4.50;96.40;;;;;;5017880;28;20097;-67
2023/01/10 10:23:04;;;;;;;13.32;3.10;;;4.50;96.30;;;;;;5015560;28;20022;-67
2023/01/10 10:25:54;;;;;;;19.52;3.75;;;4.60;96.30;;;;;;5016301;28;20044;-66
2023/01/10 10:28:57;;;;;;;7.25;2.67;;;4.80;96.80;;;;;;5016934;28;20123;-66
2023/01/10 10:31:50;;;;;;;11.60;3.40;;;4.80;95.10;;;;;;5015687;28;20022;-67
2023/01/10 10:34:36;;;;;;;9.85;2.40;;;4.90;95.20;;;;;;5016624;28;20061;-67
2023/01/10 10:37:22;;;;;;;12.43;4.30;;;4.90;95.20;;;;;;5015152;28;20026;-68
2023/01/10 10:39:55;;;;;;;9.45;2.13;;;4.90;95.70;;;;;;5010254;28;20034;-68
2023/01/10 10:42:21;;;;;;;8.00;2.20;;;4.80;93.40;;;;;;5015440;28;20022;-68
2023/01/10 10:44:54;;;;;;;8.23;2.00;;;4.80;93.90;;;;;;5016592;28;20034;-68
2023/01/10 10:47:22;;;;;;;8.60;2.45;;;4.80;93.20;;;;;;5015445;28;20033;-67
2023/01/10 10:50:28;;;;;;;7.13;2.38;;;4.70;93.40;;;;;;5017307;28;20030;-67
2023/01/10 10:52:54;;;;;;;11.80;2.33;;;4.70;94.00;;;;;;5010184;28;20045;-68
2023/01/10 10:55:28;;;;;;;8.63;2.30;;;4.80;93.50;;;;;;5016216;28;20034;-67
2023/01/10 10:57:54;;;;;;;11.15;2.42;;;4.70;93.10;;;;;;4997208;28;20308;-67
2023/01/10 11:00:21;;;;;;;8.70;3.40;;;4.80;93.90;;;;;;4999901;28;20485;-67
2023/01/10 11:03:15;;;;;;;8.93;2.97;;;4.90;94.30;;;;;;5014912;28;20038;-68
2023/01/10 11:05:44;;;;;;;9.43;3.33;;;4.80;94.30;;;;;;5017086;28;20022;-67
2023/01/10 11:08:12;;;;;;;11.63;2.45;;;4.70;94.90;;;;;;5013206;28;20026;-68
2023/01/10 11:10:48;;;;;;;12.35;2.80;;;4.40;95.90;;;;;;5016892;28;20100;-67
2023/01/10 11:13:29;;;;;;;9.45;2.10;;;4.20;97.40;;;;;;5016136;28;20437;-68
2023/01/10 11:15:56;;;;;;;10.85;2.25;;;4.20;97.70;;;;;;4998956;28;20022;-67
2023/01/10 11:18:25;;;;;;;8.98;2.40;;;4.30;97.10;;;;;;5015733;28;20038;-67
2023/01/10 11:20:59;;;;;;;9.93;2.85;;;4.50;96.60;;;;;;5016841;28;20017;-67
2023/01/10 11:23:39;;;;;;;9.20;2.60;;;4.60;96.50;;;;;;5015205;28;20034;-67
2023/01/10 11:26:28;;;;;;;8.13;2.35;;;4.70;94.50;;;;;;5014839;28;20060;-67
2023/01/10 11:29:15;;;;;;;11.43;2.53;;;4.80;94.40;;;;;;5015755;28;20484;-67
2023/01/10 11:31:45;;;;;;;19.52;10.27;;;4.90;94.50;;;;;;5016506;28;20026;-67
2023/01/10 11:34:30;;;;;;;8.43;2.00;;;4.90;93.20;;;;;;5015996;28;20109;-67
2023/01/10 11:36:57;;;;;;;;;;;4.90;93.80;;;;;;5013072;28;20021;-67
2023/01/10 11:39:23;;;;;;;8.15;2.72;;;4.90;94.20;;;;;;5011446;28;19984;-68
2023/01/10 11:41:51;;;;;;;7.35;1.67;;;4.90;93.60;;;;;;5016557;28;20026;-67
2023/01/10 11:44:26;;;;;;;7.80;1.88;;;4.90;93.20;;;;;;5015210;28;20026;-68
2023/01/10 11:46:55;;;;;;;;;;;4.90;92.70;;;;;;5015767;28;20041;-67
2023/01/10 11:49:33;;;;;;;12.20;2.05;;;4.80;92.90;;;;;;5014118;28;19956;-67
2023/01/10 11:52:03;;;;;;;6.80;2.10;;;4.80;93.60;;;;;;5015150;28;20038;-67
2023/01/10 11:54:30;;;;;;;7.00;2.00;;;4.80;93.40;;;;;;5013952;28;20485;-67
2023/01/10 11:57:22;;;;;;;10.13;2.10;;;4.90;92.60;;;;;;5016332;28;20445;-67
2023/01/10 12:00:00;;;;;;;7.35;1.80;;;4.90;92.70;;;;;;5010466;28;20018;-68
2023/01/10 12:02:32;;;;;;;6.70;2.00;;;4.90;92.40;;;;;;5014504;28;20108;-67
2023/01/10 12:05:01;;;;;;;8.77;2.20;;;4.80;92.50;;;;;;5014020;28;20121;-67
2023/01/10 12:07:27;;;;;;;6.10;2.40;;;4.80;92.80;;;;;;4997221;28;20033;-67
2023/01/10 12:09:53;;;;;;;10.50;1.80;;;4.80;93.00;;;;;;5014828;28;20041;-67
2023/01/10 12:12:24;;;;;;;8.18;4.35;;;4.80;92.80;;;;;;5016237;28;20097;-67
2023/01/10 12:14:51;;;;;;;8.32;1.73;;;4.70;93.30;;;;;;5014709;28;20034;-67
2023/01/10 12:17:31;;;;;;;6.20;1.65;;;4.70;93.10;;;;;;5014710;28;20030;-67
2023/01/10 12:20:02;;;;;;;9.63;2.08;;;4.60;92.80;;;;;;4996328;28;20030;-67
2023/01/10 12:22:45;;;;;;;37.13;15.18;;;4.50;92.40;;;;;;5004341;28;20061;-68
2023/01/10 12:25:17;;;;;;;52.17;30.08;;;4.50;93.00;;;;;;5014724;28;20034;-67
2023/01/10 12:27:45;;;;;;;11.38;4.18;;;4.70;92.50;;;;;;4996700;28;20172;-68
2023/01/10 12:30:20;;;;;;;11.32;2.05;;;4.60;92.60;;;;;;5013194;28;20378;-67
2023/01/10 12:32:51;;;;;;;8.25;2.67;;;4.60;92.50;;;;;;4998575;28;20038;-67
2023/01/10 12:35:33;;;;;;;5.53;1.65;;;4.60;92.30;;;;;;5014633;28;20058;-67
2023/01/10 12:38:17;;;;;;;16.73;7.55;;;4.60;91.70;;;;;;4997485;28;20113;-67
2023/01/10 12:40:46;;;;;;;;;;;4.80;92.30;;;;;;5013395;28;20055;-68
2023/01/10 12:46:30;;;;;;;11.20;2.30;;;5.40;90.40;;;;;;5014804;28;20028;-68
2023/01/10 12:49:02;;;;;;;8.63;1.77;;;6.00;88.60;;;;;;5014380;28;20046;-67
2023/01/10 12:51:29;;;;;;;11.07;3.90;;;6.40;87.40;;;;;;5011686;28;20084;-68
2023/01/10 12:54:03;;;;;;;7.38;2.10;;;6.70;87.10;;;;;;5017399;28;20117;-67
2023/01/10 12:56:29;;;;;;;10.13;2.53;;;7.00;86.70;;;;;;5019677;28;20063;-67
2023/01/10 12:59:05;;;;;;;4.68;1.70;;;7.00;83.90;;;;;;5018821;28;20072;-68
2023/01/10 13:01:34;;;;;;;13.63;7.60;;;6.70;85.10;;;;;;5018695;28;20062;-67
2023/01/10 13:04:09;;;;;;;7.15;2.60;;;6.80;85.50;;;;;;5017228;28;20057;-68
2023/01/10 13:06:38;;;;;;;11.52;2.35;;;7.10;85.90;;;;;;5017514;28;20145;-68
2023/01/10 13:09:23;;;;;;;12.27;1.80;;;7.10;84.70;;;;;;5016939;28;20029;-68
2023/01/10 13:12:16;;;;;;;11.70;5.05;;;6.90;84.50;;;;;;5019195;28;20081;-68
2023/01/10 13:14:59;;;;;;;11.95;5.30;;;6.80;85.10;;;;;;5016348;28;20113;-67
2023/01/10 13:17:31;;;;;;;8.23;2.65;;;6.70;85.60;;;;;;5019310;28;20322;-68
2023/01/10 13:20:22;;;;;;;8.52;3.17;;;6.20;85.40;;;;;;5015897;28;20058;-67
2023/01/10 13:22:51;;;;;;;10.15;2.42;;;5.90;86.70;;;;;;5017849;28;20442;-66